sensor_id;sensor_type;location;lat;lon;timestamp;P1;durP1;ratioP1;P2;durP2;ratioP2
59474;SDS011;45288;51.136;16.928;2022-11-15T07:03:57;85.82;;;47.30;;
59474;SDS011;45288;51.136;16.928;2022-11-15T07:07:08;85.45;;;47.63;;
59474;SDS011;45288;51.136;16.928;2022-11-15T07:09:59;82.60;;;47.60;;
59474;SDS011;45288;51.136;16.928;2022-11-15T07:13:10;86.65;;;48.47;;
59474;SDS011;45288;51.136;16.928;2022-11-15T07:16:02;83.85;;;48.67;;
59474;SDS011;45288;51.136;16.928;2022-11-15T07:19:13;80.95;;;47.33;;
59474;SDS011;45288;51.136;16.928;2022-11-15T07:22:06;79.77;;;45.87;;
59474;SDS011;45288;51.136;16.928;2022-11-15T07:25:18;76.38;;;44.90;;
59474;SDS011;45288;51.136;16.928;2022-11-15T07:28:08;75.00;;;44.25;;
59474;SDS011;45288;51.136;16.928;2022-11-15T07:31:22;78.78;;;44.30;;
59474;SDS011;45288;51.136;16.928;2022-11-15T07:34:14;77.53;;;44.72;;
59474;SDS011;45288;51.136;16.928;2022-11-15T07:37:27;75.15;;;45.35;;
59474;SDS011;45288;51.136;16.928;2022-11-15T07:40:18;76.47;;;43.40;;
59474;SDS011;45288;51.136;16.928;2022-11-15T07:43:24;72.78;;;43.65;;
59474;SDS011;45288;51.136;16.928;2022-11-15T07:46:22;80.25;;;44.08;;
59474;SDS011;45288;51.136;16.928;2022-11-15T07:49:14;78.63;;;46.95;;
59474;SDS011;45288;51.136;16.928;2022-11-15T07:52:27;81.18;;;45.03;;
59474;SDS011;45288;51.136;16.928;2022-11-15T07:55:18;90.17;;;48.50;;
59474;SDS011;45288;51.136;16.928;2022-11-15T07:58:31;82.50;;;46.13;;
59474;SDS011;45288;51.136;16.928;2022-11-15T08:01:22;76.80;;;46.00;;
59474;SDS011;45288;51.136;16.928;2022-11-15T08:04:33;76.67;;;45.27;;
59474;SDS011;45288;51.136;16.928;2022-11-15T08:07:41;82.40;;;48.13;;
59474;SDS011;45288;51.136;16.928;2022-11-15T08:10:40;79.50;;;47.35;;
59474;SDS011;45288;51.136;16.928;2022-11-15T08:13:36;78.72;;;47.85;;
59474;SDS011;45288;51.136;16.928;2022-11-15T08:16:47;79.63;;;47.55;;
59474;SDS011;45288;51.136;16.928;2022-11-15T08:19:49;84.32;;;48.30;;
59474;SDS011;45288;51.136;16.928;2022-11-15T08:22:54;77.18;;;46.05;;
59474;SDS011;45288;51.136;16.928;2022-11-15T08:25:51;77.72;;;46.22;;
59474;SDS011;45288;51.136;16.928;2022-11-15T08:28:58;75.32;;;44.88;;
59474;SDS011;45288;51.136;16.928;2022-11-15T08:31:58;74.68;;;44.58;;
59474;SDS011;45288;51.136;16.928;2022-11-15T08:35:04;73.40;;;44.10;;
59474;SDS011;45288;51.136;16.928;2022-11-15T08:38:02;74.70;;;45.70;;
59474;SDS011;45288;51.136;16.928;2022-11-15T08:41:07;75.40;;;46.20;;
59474;SDS011;45288;51.136;16.928;2022-11-15T08:44:04;74.20;;;44.22;;
59474;SDS011;45288;51.136;16.928;2022-11-15T08:47:12;75.05;;;46.70;;
59474;SDS011;45288;51.136;16.928;2022-11-15T08:50:14;76.80;;;45.38;;
59474;SDS011;45288;51.136;16.928;2022-11-15T08:53:21;74.50;;;46.03;;
59474;SDS011;45288;51.136;16.928;2022-11-15T08:56:24;74.43;;;45.92;;
59474;SDS011;45288;51.136;16.928;2022-11-15T08:59:30;75.45;;;46.03;;
59474;SDS011;45288;51.136;16.928;2022-11-15T09:02:27;73.20;;;45.22;;
59474;SDS011;45288;51.136;16.928;2022-11-15T09:05:35;72.00;;;45.53;;
59474;SDS011;45288;51.136;16.928;2022-11-15T09:08:34;76.63;;;47.00;;
59474;SDS011;45288;51.136;16.928;2022-11-15T09:11:39;70.70;;;45.28;;
59474;SDS011;45288;51.136;16.928;2022-11-15T09:14:42;69.05;;;45.17;;
59474;SDS011;45288;51.136;16.928;2022-11-15T09:17:49;68.70;;;43.95;;
59474;SDS011;45288;51.136;16.928;2022-11-15T09:20:50;70.30;;;43.30;;
59474;SDS011;45288;51.136;16.928;2022-11-15T09:23:55;69.47;;;42.87;;
59474;SDS011;45288;51.136;16.928;2022-11-15T09:26:55;66.17;;;43.20;;
59474;SDS011;45288;51.136;16.928;2022-11-15T09:30:00;72.82;;;44.20;;
59474;SDS011;45288;51.136;16.928;2022-11-15T09:33:05;69.93;;;44.35;;
59474;SDS011;45288;51.136;16.928;2022-11-15T09:36:10;70.88;;;45.42;;
59474;SDS011;45288;51.136;16.928;2022-11-15T09:39:09;78.00;;;45.60;;
59474;SDS011;45288;51.136;16.928;2022-11-15T09:45:35;70.93;;;42.80;;
59474;SDS011;45288;51.136;16.928;2022-11-15T09:51:53;66.60;;;41.97;;
59474;SDS011;45288;51.136;16.928;2022-11-15T09:54:34;66.35;;;40.97;;
59474;SDS011;45288;51.136;16.928;2022-11-15T10:00:22;57.97;;;37.90;;
59474;SDS011;45288;51.136;16.928;2022-11-15T10:03:14;58.97;;;36.50;;
59474;SDS011;45288;51.136;16.928;2022-11-15T10:06:01;53.38;;;36.03;;
59474;SDS011;45288;51.136;16.928;2022-11-15T10:09:00;57.53;;;36.58;;
59474;SDS011;45288;51.136;16.928;2022-11-15T10:11:35;53.35;;;33.67;;
59474;SDS011;45288;51.136;16.928;2022-11-15T10:14:28;48.20;;;32.55;;
59474;SDS011;45288;51.136;16.928;2022-11-15T10:19:56;46.92;;;30.83;;
59474;SDS011;45288;51.136;16.928;2022-11-15T10:22:40;49.78;;;31.25;;
59474;SDS011;45288;51.136;16.928;2022-11-15T10:25:29;47.50;;;29.70;;
59474;SDS011;45288;51.136;16.928;2022-11-15T10:28:22;44.43;;;28.57;;
59474;SDS011;45288;51.136;16.928;2022-11-15T10:31:24;47.53;;;28.80;;
59474;SDS011;45288;51.136;16.928;2022-11-15T10:34:12;43.83;;;28.50;;
59474;SDS011;45288;51.136;16.928;2022-11-15T10:37:04;43.80;;;28.10;;
59474;SDS011;45288;51.136;16.928;2022-11-15T10:39:49;36.47;;;25.45;;
59474;SDS011;45288;51.136;16.928;2022-11-15T10:42:47;37.22;;;25.38;;
59474;SDS011;45288;51.136;16.928;2022-11-15T10:45:29;34.97;;;25.27;;
59474;SDS011;45288;51.136;16.928;2022-11-15T10:48:19;35.47;;;24.08;;
59474;SDS011;45288;51.136;16.928;2022-11-15T10:50:59;34.13;;;24.50;;
59474;SDS011;45288;51.136;16.928;2022-11-15T10:53:46;34.05;;;24.10;;
59474;SDS011;45288;51.136;16.928;2022-11-15T10:56:26;37.63;;;24.98;;
59474;SDS011;45288;51.136;16.928;2022-11-15T10:59:22;33.00;;;23.27;;
59474;SDS011;45288;51.136;16.928;2022-11-15T11:05:26;35.60;;;22.77;;
59474;SDS011;45288;51.136;16.928;2022-11-15T11:10:55;36.17;;;23.70;;
59474;SDS011;45288;51.136;16.928;2022-11-15T11:13:40;37.60;;;24.92;;
59474;SDS011;45288;51.136;16.928;2022-11-15T11:16:31;37.40;;;24.50;;
59474;SDS011;45288;51.136;16.928;2022-11-15T11:19:34;36.63;;;23.90;;
59474;SDS011;45288;51.136;16.928;2022-11-15T11:22:34;35.33;;;24.27;;
59474;SDS011;45288;51.136;16.928;2022-11-15T11:42:22;35.38;;;21.83;;
59474;SDS011;45288;51.136;16.928;2022-11-15T11:45:21;36.27;;;22.07;;
59474;SDS011;45288;51.136;16.928;2022-11-15T11:50:58;28.58;;;19.85;;
59474;SDS011;45288;51.136;16.928;2022-11-15T11:53:37;28.08;;;19.50;;
59474;SDS011;45288;51.136;16.928;2022-11-15T11:56:34;28.17;;;18.98;;
59474;SDS011;45288;51.136;16.928;2022-11-15T12:02:37;24.50;;;17.90;;
59474;SDS011;45288;51.136;16.928;2022-11-15T12:05:32;24.40;;;17.35;;
59474;SDS011;45288;51.136;16.928;2022-11-15T12:11:20;23.00;;;15.95;;
59474;SDS011;45288;51.136;16.928;2022-11-15T12:14:25;19.13;;;14.77;;
59474;SDS011;45288;51.136;16.928;2022-11-15T12:17:01;20.30;;;15.75;;
59474;SDS011;45288;51.136;16.928;2022-11-15T12:19:56;19.73;;;14.48;;
59474;SDS011;45288;51.136;16.928;2022-11-15T12:25:49;18.07;;;14.40;;
59474;SDS011;45288;51.136;16.928;2022-11-15T12:31:35;18.13;;;13.18;;
59474;SDS011;45288;51.136;16.928;2022-11-15T12:45:47;21.98;;;13.70;;
59474;SDS011;45288;51.136;16.928;2022-11-15T12:51:12;17.48;;;12.43;;
59474;SDS011;45288;51.136;16.928;2022-11-15T12:54:32;17.40;;;12.45;;
59474;SDS011;45288;51.136;16.928;2022-11-15T13:02:44;20.02;;;14.50;;
59474;SDS011;45288;51.136;16.928;2022-11-15T13:08:35;20.33;;;14.63;;
59474;SDS011;45288;51.136;16.928;2022-11-15T13:26:10;21.98;;;12.98;;
59474;SDS011;45288;51.136;16.928;2022-11-15T13:28:46;17.60;;;12.35;;
59474;SDS011;45288;51.136;16.928;2022-11-15T13:31:42;17.57;;;12.23;;
59474;SDS011;45288;51.136;16.928;2022-11-15T13:34:22;18.43;;;13.00;;
59474;SDS011;45288;51.136;16.928;2022-11-15T13:39:53;20.00;;;14.18;;
59474;SDS011;45288;51.136;16.928;2022-11-15T13:42:46;18.92;;;13.98;;
59474;SDS011;45288;51.136;16.928;2022-11-15T13:45:19;28.10;;;14.43;;
59474;SDS011;45288;51.136;16.928;2022-11-15T13:48:12;19.13;;;13.98;;
59474;SDS011;45288;51.136;16.928;2022-11-15T13:50:45;19.52;;;13.90;;
59474;SDS011;45288;51.136;16.928;2022-11-15T13:53:40;21.65;;;14.15;;
59474;SDS011;45288;51.136;16.928;2022-11-15T13:56:14;23.02;;;13.85;;
59474;SDS011;45288;51.136;16.928;2022-11-15T13:59:09;19.80;;;13.55;;
59474;SDS011;45288;51.136;16.928;2022-11-15T14:01:41;20.08;;;14.23;;
59474;SDS011;45288;51.136;16.928;2022-11-15T14:04:34;22.08;;;14.73;;
59474;SDS011;45288;51.136;16.928;2022-11-15T14:07:27;19.40;;;14.38;;
59474;SDS011;45288;51.136;16.928;2022-11-15T14:10:16;25.73;;;15.48;;
59474;SDS011;45288;51.136;16.928;2022-11-15T14:13:27;22.48;;;14.38;;
59474;SDS011;45288;51.136;16.928;2022-11-15T14:16:18;26.33;;;15.20;;
59474;SDS011;45288;51.136;16.928;2022-11-15T14:19:12;24.45;;;15.57;;
59474;SDS011;45288;51.136;16.928;2022-11-15T14:27:54;38.28;;;18.77;;
59474;SDS011;45288;51.136;16.928;2022-11-15T14:30:51;31.45;;;18.52;;
59474;SDS011;45288;51.136;16.928;2022-11-15T14:33:34;43.20;;;24.00;;
59474;SDS011;45288;51.136;16.928;2022-11-15T14:36:21;31.77;;;19.80;;
59474;SDS011;45288;51.136;16.928;2022-11-15T14:39:00;31.92;;;18.25;;
59474;SDS011;45288;51.136;16.928;2022-11-15T14:41:46;33.35;;;18.83;;
59474;SDS011;45288;51.136;16.928;2022-11-15T14:44:25;33.53;;;19.20;;
59474;SDS011;45288;51.136;16.928;2022-11-15T14:47:11;33.53;;;20.05;;
59474;SDS011;45288;51.136;16.928;2022-11-15T14:49:50;35.03;;;19.43;;
59474;SDS011;45288;51.136;16.928;2022-11-15T14:52:36;35.25;;;19.85;;
59474;SDS011;45288;51.136;16.928;2022-11-15T14:55:34;30.60;;;20.70;;
59474;SDS011;45288;51.136;16.928;2022-11-15T14:58:20;36.25;;;21.55;;
59474;SDS011;45288;51.136;16.928;2022-11-15T15:00:59;40.20;;;20.65;;
59474;SDS011;45288;51.136;16.928;2022-11-15T15:03:45;34.58;;;21.08;;
59474;SDS011;45288;51.136;16.928;2022-11-15T15:06:31;32.00;;;20.17;;
59474;SDS011;45288;51.136;16.928;2022-11-15T15:09:24;29.95;;;20.55;;
59474;SDS011;45288;51.136;16.928;2022-11-15T15:11:56;29.20;;;18.70;;
59474;SDS011;45288;51.136;16.928;2022-11-15T15:14:49;32.25;;;19.95;;
59474;SDS011;45288;51.136;16.928;2022-11-15T15:17:21;35.20;;;21.50;;
59474;SDS011;45288;51.136;16.928;2022-11-15T15:20:14;32.95;;;20.73;;
59474;SDS011;45288;51.136;16.928;2022-11-15T15:22:46;30.73;;;20.52;;
59474;SDS011;45288;51.136;16.928;2022-11-15T15:25:39;31.13;;;20.67;;
59474;SDS011;45288;51.136;16.928;2022-11-15T15:28:19;29.80;;;20.05;;
59474;SDS011;45288;51.136;16.928;2022-11-15T15:31:05;31.63;;;20.40;;
59474;SDS011;45288;51.136;16.928;2022-11-15T15:33:44;27.08;;;20.20;;
59474;SDS011;45288;51.136;16.928;2022-11-15T15:36:30;28.52;;;19.77;;
59474;SDS011;45288;51.136;16.928;2022-11-15T15:39:09;31.23;;;20.60;;
59474;SDS011;45288;51.136;16.928;2022-11-15T15:41:55;30.60;;;20.60;;
59474;SDS011;45288;51.136;16.928;2022-11-15T15:44:34;27.63;;;19.70;;
59474;SDS011;45288;51.136;16.928;2022-11-15T15:47:21;31.80;;;21.65;;
59474;SDS011;45288;51.136;16.928;2022-11-15T15:50:00;32.38;;;20.45;;
59474;SDS011;45288;51.136;16.928;2022-11-15T15:52:46;32.75;;;20.77;;
59474;SDS011;45288;51.136;16.928;2022-11-15T15:55:25;32.42;;;20.67;;
59474;SDS011;45288;51.136;16.928;2022-11-15T15:58:11;37.27;;;21.30;;
59474;SDS011;45288;51.136;16.928;2022-11-15T16:00:50;30.13;;;20.75;;
59474;SDS011;45288;51.136;16.928;2022-11-15T16:03:36;32.70;;;22.05;;
59474;SDS011;45288;51.136;16.928;2022-11-15T16:09:21;41.20;;;24.58;;
59474;SDS011;45288;51.136;16.928;2022-11-15T16:12:15;38.83;;;24.73;;
59474;SDS011;45288;51.136;16.928;2022-11-15T16:15:08;31.52;;;22.10;;
59474;SDS011;45288;51.136;16.928;2022-11-15T16:17:43;33.60;;;21.98;;
59474;SDS011;45288;51.136;16.928;2022-11-15T16:20:40;34.40;;;22.63;;
59474;SDS011;45288;51.136;16.928;2022-11-15T16:23:15;35.83;;;22.33;;
59474;SDS011;45288;51.136;16.928;2022-11-15T16:26:26;33.03;;;22.73;;
59474;SDS011;45288;51.136;16.928;2022-11-15T16:29:05;36.40;;;24.27;;
59474;SDS011;45288;51.136;16.928;2022-11-15T16:31:51;37.10;;;25.37;;
59474;SDS011;45288;51.136;16.928;2022-11-15T16:34:30;37.05;;;25.33;;
59474;SDS011;45288;51.136;16.928;2022-11-15T16:37:22;38.65;;;25.73;;
59474;SDS011;45288;51.136;16.928;2022-11-15T16:40:01;38.50;;;26.85;;
59474;SDS011;45288;51.136;16.928;2022-11-15T16:42:47;39.58;;;26.85;;
59474;SDS011;45288;51.136;16.928;2022-11-15T16:45:26;40.70;;;28.27;;
59474;SDS011;45288;51.136;16.928;2022-11-15T16:48:22;46.15;;;30.00;;
59474;SDS011;45288;51.136;16.928;2022-11-15T16:51:01;46.58;;;30.90;;
59474;SDS011;45288;51.136;16.928;2022-11-15T16:53:48;48.22;;;31.48;;
59474;SDS011;45288;51.136;16.928;2022-11-15T16:56:29;46.22;;;31.25;;
59474;SDS011;45288;51.136;16.928;2022-11-15T16:59:15;46.10;;;30.15;;
59474;SDS011;45288;51.136;16.928;2022-11-15T17:01:55;46.88;;;29.45;;
59474;SDS011;45288;51.136;16.928;2022-11-15T17:04:41;45.57;;;29.93;;
59474;SDS011;45288;51.136;16.928;2022-11-15T17:07:20;45.42;;;29.27;;
59474;SDS011;45288;51.136;16.928;2022-11-15T17:10:06;44.63;;;29.05;;
59474;SDS011;45288;51.136;16.928;2022-11-15T17:12:46;46.88;;;29.73;;
59474;SDS011;45288;51.136;16.928;2022-11-15T17:15:32;44.50;;;29.65;;
59474;SDS011;45288;51.136;16.928;2022-11-15T17:18:11;46.45;;;30.13;;
59474;SDS011;45288;51.136;16.928;2022-11-15T17:21:02;50.43;;;30.33;;
59474;SDS011;45288;51.136;16.928;2022-11-15T17:23:41;55.42;;;36.55;;
59474;SDS011;45288;51.136;16.928;2022-11-15T17:26:26;60.22;;;39.95;;
59474;SDS011;45288;51.136;16.928;2022-11-15T17:29:05;54.63;;;35.63;;
59474;SDS011;45288;51.136;16.928;2022-11-15T17:31:51;59.67;;;37.63;;
59474;SDS011;45288;51.136;16.928;2022-11-15T17:34:30;61.67;;;37.07;;
59474;SDS011;45288;51.136;16.928;2022-11-15T17:37:16;54.17;;;36.08;;
59474;SDS011;45288;51.136;16.928;2022-11-15T17:39:55;70.15;;;42.83;;
59474;SDS011;45288;51.136;16.928;2022-11-15T17:42:42;61.15;;;38.03;;
59474;SDS011;45288;51.136;16.928;2022-11-15T17:45:21;53.85;;;35.53;;
59474;SDS011;45288;51.136;16.928;2022-11-15T17:48:08;58.97;;;37.08;;
59474;SDS011;45288;51.136;16.928;2022-11-15T17:50:54;60.67;;;36.45;;
59474;SDS011;45288;51.136;16.928;2022-11-15T17:53:41;58.35;;;37.35;;
59474;SDS011;45288;51.136;16.928;2022-11-15T17:56:21;57.05;;;36.40;;
59474;SDS011;45288;51.136;16.928;2022-11-15T17:59:08;57.25;;;37.22;;
59474;SDS011;45288;51.136;16.928;2022-11-15T18:01:47;57.63;;;37.78;;
59474;SDS011;45288;51.136;16.928;2022-11-15T18:04:33;58.88;;;36.03;;
59474;SDS011;45288;51.136;16.928;2022-11-15T18:07:19;58.10;;;37.60;;
59474;SDS011;45288;51.136;16.928;2022-11-15T18:10:12;62.60;;;39.85;;
59474;SDS011;45288;51.136;16.928;2022-11-15T18:12:44;64.25;;;38.88;;
59474;SDS011;45288;51.136;16.928;2022-11-15T18:15:37;86.28;;;49.63;;
59474;SDS011;45288;51.136;16.928;2022-11-15T18:18:09;122.15;;;70.75;;
59474;SDS011;45288;51.136;16.928;2022-11-15T18:21:05;125.85;;;73.05;;
59474;SDS011;45288;51.136;16.928;2022-11-15T18:23:37;132.07;;;75.47;;
59474;SDS011;45288;51.136;16.928;2022-11-15T18:26:30;129.03;;;75.07;;
59474;SDS011;45288;51.136;16.928;2022-11-15T18:29:03;112.22;;;66.13;;
59474;SDS011;45288;51.136;16.928;2022-11-15T18:31:56;100.80;;;59.65;;
59474;SDS011;45288;51.136;16.928;2022-11-15T18:34:29;103.38;;;60.90;;
59474;SDS011;45288;51.136;16.928;2022-11-15T18:37:22;110.32;;;63.60;;
59474;SDS011;45288;51.136;16.928;2022-11-15T18:39:54;116.47;;;67.85;;
59474;SDS011;45288;51.136;16.928;2022-11-15T18:42:47;117.43;;;68.22;;
59474;SDS011;45288;51.136;16.928;2022-11-15T18:45:19;153.23;;;87.63;;
59474;SDS011;45288;51.136;16.928;2022-11-15T18:48:12;163.65;;;95.25;;
59474;SDS011;45288;51.136;16.928;2022-11-15T18:50:44;147.52;;;88.30;;
59474;SDS011;45288;51.136;16.928;2022-11-15T18:53:39;130.52;;;80.28;;
59474;SDS011;45288;51.136;16.928;2022-11-15T18:56:19;108.35;;;67.30;;
59474;SDS011;45288;51.136;16.928;2022-11-15T18:59:05;104.65;;;61.50;;
59474;SDS011;45288;51.136;16.928;2022-11-15T19:01:45;101.47;;;64.20;;
59474;SDS011;45288;51.136;16.928;2022-11-15T19:04:31;107.65;;;62.97;;
59474;SDS011;45288;51.136;16.928;2022-11-15T19:07:17;103.85;;;60.60;;
59474;SDS011;45288;51.136;16.928;2022-11-15T19:10:10;97.75;;;59.38;;
59474;SDS011;45288;51.136;16.928;2022-11-15T19:12:43;97.07;;;56.38;;
59474;SDS011;45288;51.136;16.928;2022-11-15T19:15:36;90.95;;;52.20;;
59474;SDS011;45288;51.136;16.928;2022-11-15T19:18:08;86.28;;;49.75;;
59474;SDS011;45288;51.136;16.928;2022-11-15T19:21:02;86.07;;;52.05;;
59474;SDS011;45288;51.136;16.928;2022-11-15T19:23:35;86.07;;;53.22;;
59474;SDS011;45288;51.136;16.928;2022-11-15T19:26:28;90.97;;;54.45;;
59474;SDS011;45288;51.136;16.928;2022-11-15T19:29:08;90.97;;;55.17;;
59474;SDS011;45288;51.136;16.928;2022-11-15T19:32:01;90.28;;;54.15;;
59474;SDS011;45288;51.136;16.928;2022-11-15T19:34:34;86.32;;;51.38;;
59474;SDS011;45288;51.136;16.928;2022-11-15T19:37:27;87.63;;;52.30;;
59474;SDS011;45288;51.136;16.928;2022-11-15T19:39:59;87.75;;;51.30;;
59474;SDS011;45288;51.136;16.928;2022-11-15T19:42:52;85.90;;;51.20;;
59474;SDS011;45288;51.136;16.928;2022-11-15T19:45:24;91.65;;;52.72;;
59474;SDS011;45288;51.136;16.928;2022-11-15T19:48:17;88.22;;;51.97;;
59474;SDS011;45288;51.136;16.928;2022-11-15T19:50:50;89.07;;;53.20;;
59474;SDS011;45288;51.136;16.928;2022-11-15T19:53:43;85.63;;;53.10;;
59474;SDS011;45288;51.136;16.928;2022-11-15T19:56:16;84.97;;;52.85;;
59474;SDS011;45288;51.136;16.928;2022-11-15T19:59:09;90.90;;;52.03;;
59474;SDS011;45288;51.136;16.928;2022-11-15T20:01:43;88.47;;;50.53;;
59474;SDS011;45288;51.136;16.928;2022-11-15T20:04:35;85.82;;;50.95;;
59474;SDS011;45288;51.136;16.928;2022-11-15T20:07:08;84.70;;;50.00;;
59474;SDS011;45288;51.136;16.928;2022-11-15T20:10:00;81.18;;;49.13;;
59474;SDS011;45288;51.136;16.928;2022-11-15T20:12:32;79.13;;;47.85;;
59474;SDS011;45288;51.136;16.928;2022-11-15T20:15:25;84.45;;;51.00;;
59474;SDS011;45288;51.136;16.928;2022-11-15T20:17:57;106.90;;;62.55;;
59474;SDS011;45288;51.136;16.928;2022-11-15T20:20:50;112.07;;;68.07;;
59474;SDS011;45288;51.136;16.928;2022-11-15T20:23:23;116.63;;;72.28;;
59474;SDS011;45288;51.136;16.928;2022-11-15T20:26:15;133.00;;;82.18;;
59474;SDS011;45288;51.136;16.928;2022-11-15T20:28:48;124.75;;;77.90;;
59474;SDS011;45288;51.136;16.928;2022-11-15T20:31:45;130.37;;;80.83;;
59474;SDS011;45288;51.136;16.928;2022-11-15T20:34:18;126.78;;;82.20;;
59474;SDS011;45288;51.136;16.928;2022-11-15T20:37:11;128.60;;;78.75;;
59474;SDS011;45288;51.136;16.928;2022-11-15T20:39:43;107.72;;;61.67;;
59474;SDS011;45288;51.136;16.928;2022-11-15T20:42:36;103.38;;;63.55;;
59474;SDS011;45288;51.136;16.928;2022-11-15T20:45:09;103.87;;;65.43;;
59474;SDS011;45288;51.136;16.928;2022-11-15T20:48:02;104.78;;;65.40;;
59474;SDS011;45288;51.136;16.928;2022-11-15T20:50:34;113.03;;;70.80;;
59474;SDS011;45288;51.136;16.928;2022-11-15T20:53:27;119.43;;;71.47;;
59474;SDS011;45288;51.136;16.928;2022-11-15T20:56:04;115.27;;;72.00;;
59474;SDS011;45288;51.136;16.928;2022-11-15T20:58:56;117.70;;;73.13;;
59474;SDS011;45288;51.136;16.928;2022-11-15T21:01:28;113.50;;;70.05;;
59474;SDS011;45288;51.136;16.928;2022-11-15T21:04:21;108.85;;;67.22;;
59474;SDS011;45288;51.136;16.928;2022-11-15T21:06:53;109.38;;;67.80;;
59474;SDS011;45288;51.136;16.928;2022-11-15T21:09:46;104.35;;;62.88;;
59474;SDS011;45288;51.136;16.928;2022-11-15T21:12:36;96.63;;;61.38;;
59474;SDS011;45288;51.136;16.928;2022-11-15T21:15:29;97.80;;;60.07;;
59474;SDS011;45288;51.136;16.928;2022-11-15T21:18:03;92.87;;;57.73;;
59474;SDS011;45288;51.136;16.928;2022-11-15T21:21:05;92.25;;;57.50;;
59474;SDS011;45288;51.136;16.928;2022-11-15T21:23:37;103.68;;;62.53;;
59474;SDS011;45288;51.136;16.928;2022-11-15T21:26:30;108.72;;;66.72;;
59474;SDS011;45288;51.136;16.928;2022-11-15T21:29:03;114.68;;;68.22;;
59474;SDS011;45288;51.136;16.928;2022-11-15T21:32:01;109.80;;;66.30;;
59474;SDS011;45288;51.136;16.928;2022-11-15T21:34:36;109.03;;;64.40;;
59474;SDS011;45288;51.136;16.928;2022-11-15T21:37:29;105.90;;;61.92;;
59474;SDS011;45288;51.136;16.928;2022-11-15T21:40:01;95.97;;;58.45;;
59474;SDS011;45288;51.136;16.928;2022-11-15T21:42:54;95.80;;;57.87;;
59474;SDS011;45288;51.136;16.928;2022-11-15T21:45:26;91.37;;;56.77;;
59474;SDS011;45288;51.136;16.928;2022-11-15T21:48:19;86.25;;;54.53;;
59474;SDS011;45288;51.136;16.928;2022-11-15T21:50:58;88.85;;;53.55;;
59474;SDS011;45288;51.136;16.928;2022-11-15T21:53:54;87.50;;;53.80;;
59474;SDS011;45288;51.136;16.928;2022-11-15T21:56:27;85.60;;;52.70;;
59474;SDS011;45288;51.136;16.928;2022-11-15T21:59:20;85.60;;;51.70;;
59474;SDS011;45288;51.136;16.928;2022-11-15T22:01:54;85.07;;;52.22;;
59474;SDS011;45288;51.136;16.928;2022-11-15T22:05:01;83.88;;;51.50;;
59474;SDS011;45288;51.136;16.928;2022-11-15T22:07:33;82.15;;;49.85;;
59474;SDS011;45288;51.136;16.928;2022-11-15T22:10:26;86.80;;;51.83;;
59474;SDS011;45288;51.136;16.928;2022-11-15T22:12:58;79.40;;;48.30;;
59474;SDS011;45288;51.136;16.928;2022-11-15T22:15:52;80.07;;;49.00;;
59474;SDS011;45288;51.136;16.928;2022-11-15T22:18:24;83.55;;;49.90;;
59474;SDS011;45288;51.136;16.928;2022-11-15T22:21:17;81.20;;;50.28;;
59474;SDS011;45288;51.136;16.928;2022-11-15T22:23:49;82.88;;;50.53;;
59474;SDS011;45288;51.136;16.928;2022-11-15T22:26:42;83.57;;;50.92;;
59474;SDS011;45288;51.136;16.928;2022-11-15T22:29:14;90.05;;;53.88;;
59474;SDS011;45288;51.136;16.928;2022-11-15T22:32:07;85.00;;;50.60;;
59474;SDS011;45288;51.136;16.928;2022-11-15T22:34:39;82.33;;;50.27;;
59474;SDS011;45288;51.136;16.928;2022-11-15T22:37:32;89.07;;;52.78;;
59474;SDS011;45288;51.136;16.928;2022-11-15T22:40:05;87.85;;;54.08;;
59474;SDS011;45288;51.136;16.928;2022-11-15T22:42:57;86.40;;;52.08;;
59474;SDS011;45288;51.136;16.928;2022-11-15T22:45:30;84.80;;;53.10;;
59474;SDS011;45288;51.136;16.928;2022-11-15T22:48:23;88.80;;;54.20;;
59474;SDS011;45288;51.136;16.928;2022-11-15T22:50:55;87.53;;;54.38;;
59474;SDS011;45288;51.136;16.928;2022-11-15T22:53:48;93.00;;;56.60;;
59474;SDS011;45288;51.136;16.928;2022-11-15T22:56:20;95.87;;;58.67;;
59474;SDS011;45288;51.136;16.928;2022-11-15T22:59:13;92.68;;;56.80;;
59474;SDS011;45288;51.136;16.928;2022-11-15T23:01:52;94.22;;;57.28;;
59474;SDS011;45288;51.136;16.928;2022-11-15T23:04:38;87.40;;;54.65;;
59474;SDS011;45288;51.136;16.928;2022-11-15T23:07:24;92.32;;;55.72;;
59474;SDS011;45288;51.136;16.928;2022-11-15T23:10:18;90.32;;;55.90;;
59474;SDS011;45288;51.136;16.928;2022-11-15T23:13:10;88.22;;;54.55;;
59474;SDS011;45288;51.136;16.928;2022-11-15T23:16:07;87.97;;;53.47;;
59474;SDS011;45288;51.136;16.928;2022-11-15T23:18:57;87.15;;;55.50;;
59474;SDS011;45288;51.136;16.928;2022-11-15T23:21:50;84.28;;;54.63;;
59474;SDS011;45288;51.136;16.928;2022-11-15T23:24:40;93.28;;;56.80;;
59474;SDS011;45288;51.136;16.928;2022-11-15T23:27:33;93.63;;;57.13;;
59474;SDS011;45288;51.136;16.928;2022-11-15T23:30:06;89.78;;;55.78;;
59474;SDS011;45288;51.136;16.928;2022-11-15T23:33:16;92.85;;;57.15;;
59474;SDS011;45288;51.136;16.928;2022-11-15T23:36:06;100.47;;;60.42;;
59474;SDS011;45288;51.136;16.928;2022-11-15T23:38:59;102.35;;;63.60;;
59474;SDS011;45288;51.136;16.928;2022-11-15T23:41:32;104.55;;;63.80;;
59474;SDS011;45288;51.136;16.928;2022-11-15T23:44:25;104.85;;;63.70;;
59474;SDS011;45288;51.136;16.928;2022-11-15T23:46:57;105.10;;;64.35;;
59474;SDS011;45288;51.136;16.928;2022-11-15T23:49:50;103.70;;;64.43;;
59474;SDS011;45288;51.136;16.928;2022-11-15T23:52:22;103.35;;;63.55;;
59474;SDS011;45288;51.136;16.928;2022-11-15T23:55:15;99.18;;;61.90;;
59474;SDS011;45288;51.136;16.928;2022-11-15T23:58:08;99.23;;;59.90;;
